Time;durP1;ratioP1;P1;durP2;ratioP2;P2;SDS_P1;SDS_P2;PMS_P1;PMS_P2;Temp;Humidity;BMP_temperature;BMP_pressure;BME280_temperature;BME280_humidity;BME280_pressure;Samples;Min_cycle;Max_cycle;Signal;HPM_P1;HPM_P2
2022/05/07 00:01:34;;;;;;;6.13;4.10;;;;;;;8.30;100.00;96440.16;5013313;28;24478;-73
2022/05/07 00:04:00;;;;;;;5.32;3.70;;;;;;;8.36;100.00;96439.06;5013274;28;20762;-73
2022/05/07 00:06:26;;;;;;;4.93;3.85;;;;;;;8.27;100.00;96437.75;5013301;28;24443;-73
2022/05/07 00:08:53;;;;;;;10.82;4.20;;;;;;;8.22;100.00;96442.25;5013477;28;24427;-73
2022/05/07 00:11:21;;;;;;;5.72;3.83;;;;;;;8.12;100.00;96434.06;5013120;28;24490;-73
2022/05/07 00:13:49;;;;;;;10.93;4.05;;;;;;;8.11;100.00;96437.53;5013250;28;21196;-73
2022/05/07 00:19:14;;;;;;;9.13;4.32;;;;;;;8.19;100.00;96432.91;4952420;29;25002;-73
2022/05/07 00:21:40;;;;;;;10.48;5.10;;;;;;;8.19;100.00;96435.50;4952306;29;24426;-73
2022/05/07 00:24:07;;;;;;;7.43;4.97;;;;;;;8.12;100.00;96425.47;4978112;28;24421;-73
2022/05/07 00:26:34;;;;;;;12.48;4.80;;;;;;;8.12;100.00;96426.34;5012781;28;24447;-73
2022/05/07 00:29:01;;;;;;;6.93;4.22;;;;;;;8.07;100.00;96424.84;5012824;28;20840;-73
2022/05/07 00:31:28;;;;;;;7.90;4.70;;;;;;;8.02;100.00;96425.03;5012909;28;21133;-73
2022/05/07 00:33:54;;;;;;;7.28;4.80;;;;;;;7.98;100.00;96428.66;5012713;28;24420;-73
2022/05/07 00:36:21;;;;;;;13.25;5.90;;;;;;;7.94;100.00;96434.84;5012627;28;24565;-73
2022/05/07 00:38:47;;;;;;;7.65;4.35;;;;;;;7.95;100.00;96424.44;5012658;28;24416;-73
2022/05/07 00:41:14;;;;;;;10.57;4.85;;;;;;;7.99;100.00;96428.56;5012420;28;24817;-72
2022/05/07 00:43:41;;;;;;;8.30;4.95;;;;;;;8.07;100.00;96423.09;5012262;28;24420;-71
2022/05/07 00:46:09;;;;;;;7.90;4.35;;;;;;;8.03;100.00;96418.97;5012485;28;21327;-71
2022/05/07 00:48:36;;;;;;;5.93;4.32;;;;;;;7.72;100.00;96422.84;5012840;28;20762;-71
2022/05/07 00:53:49;;;;;;;8.25;4.97;;;;;;;7.76;100.00;96413.22;5012309;28;20754;-71
2022/05/07 00:56:16;;;;;;;8.57;5.13;;;;;;;7.83;100.00;96409.50;5012256;28;24980;-71
2022/05/07 00:58:42;;;;;;;9.55;5.13;;;;;;;7.86;100.00;96411.97;5012596;28;24483;-71
2022/05/07 01:01:10;;;;;;;8.98;4.97;;;;;;;7.88;100.00;96402.41;5012274;28;24427;-71
2022/05/07 01:03:38;;;;;;;10.43;4.50;;;;;;;7.79;100.00;96407.97;5012202;28;20769;-71
2022/05/07 01:06:05;;;;;;;5.97;4.00;;;;;;;7.65;100.00;96399.94;5012197;28;24480;-71
2022/05/07 01:08:32;;;;;;;10.20;4.50;;;;;;;7.54;100.00;96402.97;5012203;28;20840;-71
2022/05/07 01:11:00;;;;;;;6.45;4.05;;;;;;;7.50;100.00;96407.41;5012062;28;24525;-71
2022/05/07 01:13:27;;;;;;;8.75;4.07;;;;;;;7.51;100.00;96401.34;5012047;28;24470;-71
2022/05/07 01:15:56;;;;;;;5.43;3.97;;;;;;;7.57;100.00;96397.69;5012014;28;24517;-71
2022/05/07 01:18:25;;;;;;;6.65;4.43;;;;;;;7.52;100.00;96407.31;5011933;28;24503;-71
2022/05/07 01:20:53;;;;;;;6.93;4.30;;;;;;;7.55;100.00;96396.91;5012271;28;24432;-71
2022/05/07 01:23:21;;;;;;;6.50;4.00;;;;;;;7.61;100.00;96403.56;5011628;28;21136;-71
2022/05/07 01:25:47;;;;;;;7.22;4.03;;;;;;;7.66;100.00;96407.59;5011583;28;24950;-71
2022/05/07 01:28:14;;;;;;;5.68;3.70;;;;;;;7.64;100.00;96404.28;5012044;28;24416;-71
2022/05/07 01:30:40;;;;;;;5.90;3.97;;;;;;;7.60;100.00;96407.88;5011730;28;24420;-71
2022/05/07 01:33:07;;;;;;;6.55;4.35;;;;;;;7.49;100.00;96410.88;5011487;28;24515;-71
2022/05/07 01:35:33;;;;;;;6.13;3.78;;;;;;;7.35;100.00;96402.88;5011709;28;24421;-71
2022/05/07 01:37:59;;;;;;;5.10;3.40;;;;;;;7.33;100.00;96409.81;5011718;28;24436;-71
2022/05/07 01:40:27;;;;;;;4.93;3.65;;;;;;;7.26;100.00;96401.47;5011616;28;24416;-71
2022/05/07 01:42:54;;;;;;;7.60;3.38;;;;;;;7.18;100.00;96395.78;5011421;28;24432;-71
2022/05/07 01:45:20;;;;;;;7.85;4.32;;;;;;;7.13;100.00;96402.03;5011474;28;24984;-71
2022/05/07 01:50:31;;;;;;;6.03;4.03;;;;;;;7.15;100.00;96397.66;5011249;28;24411;-71
2022/05/07 01:52:57;;;;;;;5.95;4.00;;;;;;;7.18;100.00;96400.94;5011330;28;24427;-71
2022/05/07 01:55:24;;;;;;;8.63;4.32;;;;;;;7.14;100.00;96404.53;5011215;28;25016;-71
2022/05/07 01:57:52;;;;;;;5.28;3.75;;;;;;;7.10;100.00;96397.84;5011325;28;24475;-71
2022/05/07 02:00:18;;;;;;;5.63;3.63;;;;;;;7.14;100.00;96398.56;5011108;28;24417;-71
2022/05/07 02:02:45;;;;;;;7.78;4.15;;;;;;;7.16;100.00;96400.19;5010952;28;24899;-71
2022/05/07 02:05:11;;;;;;;5.28;4.20;;;;;;;7.14;100.00;96403.72;5011265;28;24471;-71
2022/05/07 02:07:38;;;;;;;5.72;4.25;;;;;;;7.02;100.00;96398.13;5011275;28;24806;-71
2022/05/07 02:10:05;;;;;;;5.85;4.20;;;;;;;6.98;100.00;96399.16;5011200;28;24428;-71
2022/05/07 02:12:31;;;;;;;9.63;4.28;;;;;;;7.01;100.00;96396.47;5011496;28;20809;-72
2022/05/07 02:14:59;;;;;;;7.43;3.90;;;;;;;7.05;100.00;96398.94;5011273;28;24436;-72
2022/05/07 02:17:25;;;;;;;10.37;3.93;;;;;;;7.11;100.00;96407.22;5010887;28;24432;-72
2022/05/07 02:19:52;;;;;;;7.80;4.05;;;;;;;6.99;100.00;96399.97;5011213;28;24482;-72
2022/05/07 02:22:18;;;;;;;4.30;3.60;;;;;;;6.86;100.00;96399.63;5010874;28;24993;-72
2022/05/07 02:24:46;;;;;;;6.35;3.47;;;;;;;6.83;100.00;96406.63;5011206;28;24423;-72
2022/05/07 02:27:12;;;;;;;5.45;3.28;;;;;;;6.81;100.00;96404.09;5011223;28;20793;-71
2022/05/07 02:29:39;;;;;;;4.67;3.40;;;;;;;6.84;100.00;96400.56;5010871;28;25074;-72
2022/05/07 02:32:07;;;;;;;12.65;3.78;;;;;;;6.83;100.00;96399.75;5010853;28;24424;-72
2022/05/07 02:34:35;;;;;;;5.72;3.47;;;;;;;6.82;100.00;96398.03;5010935;28;24471;-72
2022/05/07 02:37:02;;;;;;;5.55;3.28;;;;;;;6.82;100.00;96407.50;5011038;28;24424;-72
2022/05/07 02:39:29;;;;;;;4.05;2.78;;;;;;;6.75;100.00;96404.34;5011179;28;24428;-71
2022/05/07 02:44:39;;;;;;;7.05;3.60;;;;;;;6.59;100.00;96403.22;5011256;28;24463;-72
2022/05/07 02:47:07;;;;;;;4.38;3.28;;;;;;;6.57;100.00;96398.13;5011054;28;24440;-72
2022/05/07 02:49:34;;;;;;;4.25;3.20;;;;;;;6.60;100.00;96399.75;5010921;28;24962;-72
2022/05/07 02:52:01;;;;;;;4.00;3.58;;;;;;;6.66;100.00;96396.94;5010928;28;24432;-72
2022/05/07 02:54:27;;;;;;;6.78;4.10;;;;;;;6.68;100.00;96398.59;5010810;28;24412;-72
2022/05/07 02:56:55;;;;;;;7.95;3.83;;;;;;;6.51;100.00;96396.63;5010749;28;24502;-71
2022/05/07 02:59:21;;;;;;;5.07;3.53;;;;;;;6.29;100.00;96401.69;5012522;28;24985;-72
2022/05/07 03:01:48;;;;;;;4.57;3.80;;;;;;;6.21;100.00;96393.44;5014764;28;25093;-71
2022/05/07 03:04:16;;;;;;;6.95;4.10;;;;;;;6.20;100.00;96393.50;5014703;28;24969;-72
2022/05/07 03:06:42;;;;;;;7.10;4.20;;;;;;;6.20;100.00;96393.50;5014743;28;25000;-74
2022/05/07 03:09:09;;;;;;;8.65;4.07;;;;;;;6.18;100.00;96392.69;5014787;28;24412;-72
2022/05/07 03:11:35;;;;;;;7.07;3.78;;;;;;;6.24;100.00;96384.78;5014432;28;24834;-72
2022/05/07 03:14:02;;;;;;;7.93;4.20;;;;;;;6.28;100.00;96388.91;5014676;28;24424;-72
2022/05/07 03:16:29;;;;;;;4.75;3.63;;;;;;;6.20;100.00;96393.50;5014661;28;24421;-72
2022/05/07 03:18:55;;;;;;;4.60;3.70;;;;;;;6.14;100.00;96396.28;5014763;28;24427;-72
2022/05/07 03:21:23;;;;;;;7.65;3.40;;;;;;;6.15;100.00;96392.78;5014560;28;24629;-72
2022/05/07 03:23:49;;;;;;;6.93;3.70;;;;;;;6.18;100.00;96392.69;5014212;28;24968;-72
2022/05/07 03:26:17;;;;;;;5.72;3.75;;;;;;;6.27;100.00;96384.66;5014061;28;24423;-72
2022/05/07 03:28:43;;;;;;;6.00;3.50;;;;;;;6.27;100.00;96384.66;5014452;28;24803;-72
2022/05/07 03:31:10;;;;;;;4.18;3.45;;;;;;;6.27;100.00;96385.50;5014136;28;24424;-71
2022/05/07 03:33:36;;;;;;;4.50;3.30;;;;;;;6.25;100.00;96394.16;5013774;28;24439;-71
2022/05/07 03:36:03;;;;;;;10.10;3.53;;;;;;;6.21;100.00;96390.03;5014060;28;24451;-72
2022/05/07 03:38:30;;;;;;;6.63;3.72;;;;;;;6.19;100.00;96387.50;5013925;28;25007;-72
2022/05/07 03:40:57;;;;;;;5.25;3.72;;;;;;;6.20;100.00;96389.19;5014140;28;24433;-72
2022/05/07 03:43:24;;;;;;;5.80;3.33;;;;;;;6.19;100.00;96378.94;5014199;28;24431;-72
2022/05/07 03:45:50;;;;;;;8.85;3.58;;;;;;;6.18;100.00;96384.97;5014774;28;24421;-72
2022/05/07 03:48:17;;;;;;;4.82;3.20;;;;;;;6.20;100.00;96380.63;5013904;28;24455;-72
2022/05/07 03:50:44;;;;;;;4.30;3.63;;;;;;;6.17;100.00;96389.28;5013920;28;24416;-72
2022/05/07 03:55:56;;;;;;;8.30;3.75;;;;;;;6.17;100.00;96385.88;5013521;28;24407;-72
2022/05/07 03:58:22;;;;;;;4.35;2.95;;;;;;;6.10;100.00;96392.13;5014147;28;24763;-72
2022/05/07 04:00:49;;;;;;;4.20;2.95;;;;;;;6.04;100.00;96388.03;5013968;28;24431;-72
2022/05/07 04:03:15;;;;;;;10.77;2.80;;;;;;;6.04;100.00;96383.75;5013622;28;24451;-71
2022/05/07 04:05:42;;;;;;;3.97;2.50;;;;;;;6.06;100.00;96389.66;5013492;28;25024;-72
2022/05/07 04:08:08;;;;;;;5.30;3.30;;;;;;;6.12;100.00;96385.19;5013744;28;24451;-72
2022/05/07 04:10:35;;;;;;;5.88;3.00;;;;;;;6.19;100.00;96397.81;5013225;28;24548;-72
2022/05/07 04:13:03;;;;;;;2.90;2.60;;;;;;;6.19;100.00;96390.09;5013590;28;24778;-73
2022/05/07 04:15:29;;;;;;;4.45;2.45;;;;;;;6.17;100.00;96393.59;5013315;28;24988;-72
2022/05/07 04:17:55;;;;;;;3.45;2.67;;;;;;;6.23;100.00;96395.94;5013785;28;24424;-72
2022/05/07 04:20:22;;;;;;;4.50;3.17;;;;;;;6.29;100.00;96390.56;5013417;28;24463;-72
2022/05/07 04:22:49;;;;;;;4.82;3.20;;;;;;;6.17;100.00;96403.88;5013356;28;24450;-72
2022/05/07 04:25:15;;;;;;;5.35;3.35;;;;;;;6.09;100.00;96400.75;5013235;28;24420;-72
2022/05/07 04:27:42;;;;;;;4.70;2.85;;;;;;;6.11;100.00;96392.06;5013402;28;24519;-72
2022/05/07 04:30:10;;;;;;;6.10;3.17;;;;;;;6.10;100.00;96402.41;5013700;28;24420;-72
2022/05/07 04:32:37;;;;;;;3.42;3.00;;;;;;;6.01;100.00;96396.72;5013151;28;24779;-72
2022/05/07 04:35:05;;;;;;;4.30;3.25;;;;;;;6.05;100.00;96397.44;5013428;28;24443;-72
2022/05/07 04:37:31;;;;;;;8.60;3.53;;;;;;;6.11;100.00;96399.78;5013427;28;24436;-72
2022/05/07 04:39:57;;;;;;;4.30;2.78;;;;;;;6.25;100.00;96400.13;5013075;28;24418;-72
2022/05/07 04:42:24;;;;;;;3.47;2.95;;;;;;;6.22;100.00;96407.13;5012819;28;24475;-72
2022/05/07 04:44:50;;;;;;;5.18;2.72;;;;;;;6.24;100.00;96400.19;5012846;28;24482;-71
2022/05/07 04:47:18;;;;;;;2.78;2.50;;;;;;;6.25;100.00;96405.28;5012462;28;24444;-72
2022/05/07 04:49:45;;;;;;;6.43;2.80;;;;;;;6.19;100.00;96402.94;5013267;28;24427;-72
2022/05/07 04:52:11;;;;;;;6.85;2.75;;;;;;;6.28;100.00;96404.34;5012855;28;24934;-71
2022/05/07 04:54:38;;;;;;;5.47;3.25;;;;;;;6.42;100.00;96399.53;5012958;28;24420;-72
2022/05/07 04:57:05;;;;;;;4.70;3.28;;;;;;;6.49;100.00;96403.56;5012394;28;24593;-71
2022/05/07 04:59:32;;;;;;;5.22;3.78;;;;;;;6.66;100.00;96404.69;5012434;28;24423;-72
2022/05/07 05:01:58;;;;;;;5.63;3.60;;;;;;;6.79;100.00;96404.16;5012133;28;24432;-72
2022/05/07 05:04:26;;;;;;;4.80;3.47;;;;;;;6.81;100.00;96398.13;5012229;28;25071;-72
2022/05/07 05:06:52;;;;;;;7.30;4.28;;;;;;;6.88;100.00;96402.13;5012352;28;24424;-72
2022/05/07 05:09:19;;;;;;;4.63;3.53;;;;;;;6.92;100.00;96398.53;5012341;28;24435;-72
2022/05/07 05:11:45;;;;;;;31.02;22.75;;;;;;;7.00;100.00;96401.66;5012173;28;24445;-72
2022/05/07 05:16:56;;;;;;;8.10;7.20;;;;;;;7.36;100.00;96408.84;5012163;28;24462;-72
2022/05/07 05:19:22;;;;;;;7.97;3.80;;;;;;;7.56;100.00;96403.72;5012268;28;24424;-72
2022/05/07 05:21:50;;;;;;;4.57;3.70;;;;;;;7.72;100.00;96411.69;5011596;28;24435;-73
2022/05/07 05:24:17;;;;;;;4.70;3.63;;;;;;;7.83;100.00;96412.06;5011973;28;24953;-72
2022/05/07 05:26:43;;;;;;;7.88;3.72;;;;;;;7.84;100.00;96416.31;5012031;28;24419;-73
2022/05/07 05:29:09;;;;;;;4.93;3.58;;;;;;;7.90;100.00;96410.91;5012160;28;24448;-72
2022/05/07 05:31:36;;;;;;;6.13;3.60;;;;;;;7.99;100.00;96414.84;5012175;28;24424;-73
2022/05/07 05:34:02;;;;;;;5.20;3.83;;;;;;;8.17;100.00;96408.06;5012001;28;24980;-73
2022/05/07 05:36:30;;;;;;;5.50;3.22;;;;;;;8.18;100.00;96415.72;5012386;28;24412;-72
2022/05/07 05:38:58;;;;;;;6.03;3.28;;;;;;;8.31;100.00;96415.22;5012371;28;24778;-73
2022/05/07 05:41:24;;;;;;;4.30;3.55;;;;;;;8.36;100.00;96421.84;5011957;28;24440;-73
2022/05/07 05:43:50;;;;;;;6.03;3.47;;;;;;;8.33;100.00;96419.41;5011547;28;24427;-72
2022/05/07 05:46:17;;;;;;;10.48;2.95;;;;;;;8.39;100.00;96431.25;5011870;28;24826;-73
2022/05/07 05:48:43;;;;;;;4.55;3.30;;;;;;;8.44;100.00;96419.78;5011854;28;24448;-73
2022/05/07 05:51:10;;;;;;;4.47;3.53;;;;;;;8.45;100.00;96421.50;5011914;28;24433;-73
2022/05/07 05:53:36;;;;;;;4.60;2.95;;;;;;;8.64;100.00;96415.47;5011564;28;24834;-73
2022/05/07 05:56:04;;;;;;;4.45;3.17;;;;;;;8.82;100.00;96422.41;5011725;28;24981;-73
2022/05/07 05:58:33;;;;;;;3.63;2.90;;;;;;;9.04;100.00;96427.44;5011940;28;24424;-72
2022/05/07 06:01:00;;;;;;;5.35;3.72;;;;;;;9.41;100.00;96418.78;5011699;28;20849;-73
2022/05/07 06:03:26;;;;;;;6.63;3.28;;;;;;;9.58;100.00;96422.31;5011672;28;24424;-73
2022/05/07 06:05:53;;;;;;;3.70;3.10;;;;;;;9.76;100.00;96420.59;5011491;28;24424;-73
2022/05/07 06:08:19;;;;;;;5.03;3.20;;;;;;;9.88;100.00;96425.16;5011580;28;24452;-73
2022/05/07 06:10:46;;;;;;;4.40;2.80;;;;;;;10.06;100.00;96424.25;5011276;28;24428;-73
2022/05/07 06:13:14;;;;;;;3.75;2.58;;;;;;;10.26;100.00;96418.06;5011473;28;24769;-73
2022/05/07 06:15:40;;;;;;;5.80;3.00;;;;;;;10.41;100.00;96425.03;5011686;28;24779;-73
2022/05/07 06:18:07;;;;;;;5.72;3.10;;;;;;;10.48;100.00;96415.22;5011364;28;24415;-73
2022/05/07 06:20:34;;;;;;;2.60;2.40;;;;;;;10.53;100.00;96417.56;5011408;28;24437;-72
2022/05/07 06:23:00;;;;;;;3.55;2.63;;;;;;;10.67;100.00;96417.69;5011083;28;24431;-73
2022/05/07 06:28:11;;;;;;;3.75;2.72;;;;;;;11.10;100.00;96415.38;5011191;28;24539;-73
2022/05/07 06:30:38;;;;;;;4.97;3.10;;;;;;;11.32;100.00;96423.66;5011359;28;24436;-73
2022/05/07 06:33:05;;;;;;;4.68;2.83;;;;;;;11.58;100.00;96426.56;5010893;28;24962;-73
2022/05/07 06:35:31;;;;;;;4.47;3.13;;;;;;;11.76;100.00;96424.69;5011103;28;24435;-73
2022/05/07 06:37:58;;;;;;;5.97;3.10;;;;;;;12.01;100.00;96422.34;5011054;28;24427;-73
2022/05/07 06:40:25;;;;;;;4.10;3.00;;;;;;;12.32;100.00;96431.81;5011394;28;24417;-73
2022/05/07 06:42:51;;;;;;;6.22;2.67;;;;;;;12.55;100.00;96427.00;5011143;28;24451;-73
2022/05/07 06:45:18;;;;;;;3.28;2.90;;;;;;;12.67;100.00;96422.81;5011311;28;24863;-73
2022/05/07 06:47:46;;;;;;;7.30;3.17;;;;;;;12.75;100.00;96429.22;5011590;28;24451;-73
2022/05/07 06:50:12;;;;;;;3.73;2.80;;;;;;;13.01;100.00;96426.78;5011646;28;24477;-72
2022/05/07 06:52:46;;;;;;;4.90;3.00;;;;;;;12.87;97.68;96427.66;5011525;28;24950;-73
2022/05/07 06:55:13;;;;;;;3.90;2.90;;;;;;;12.59;99.70;96434.50;5011592;28;24419;-73
2022/05/07 06:57:40;;;;;;;5.88;2.80;;;;;;;12.54;100.00;96436.56;5011460;28;24494;-74
2022/05/07 07:00:08;;;;;;;3.35;2.45;;;;;;;12.75;100.00;96429.22;5011219;28;24432;-72
2022/05/07 07:02:34;;;;;;;5.00;2.67;;;;;;;13.05;99.93;96428.25;5010880;28;25036;-72
2022/05/07 07:05:02;;;;;;;3.45;2.53;;;;;;;13.11;98.66;96429.66;5010898;28;24875;-73
2022/05/07 07:07:29;;;;;;;3.92;2.95;;;;;;;13.18;98.25;96431.78;5011254;28;24447;-73
2022/05/07 07:09:55;;;;;;;7.75;3.28;;;;;;;13.23;96.69;96421.06;5011435;28;24479;-73
2022/05/07 07:12:22;;;;;;;5.87;3.03;;;;;;;13.48;96.62;96428.19;5010967;28;24523;-73
2022/05/07 07:14:48;;;;;;;6.13;2.97;;;;;;;13.49;97.46;96432.47;5011848;28;24810;-73
2022/05/07 07:17:17;;;;;;;5.80;2.97;;;;;;;13.98;96.21;96429.31;5010890;28;24424;-72
2022/05/07 07:19:43;;;;;;;6.63;2.90;;;;;;;14.14;92.96;96427.34;5011289;28;24957;-73
2022/05/07 07:22:12;;;;;;;7.70;3.20;;;;;;;14.69;95.33;96417.59;5010594;28;24425;-73
2022/05/07 07:24:38;;;;;;;8.05;2.92;;;;;;;15.11;90.15;96423.38;5011083;28;24420;-73
2022/05/07 07:27:06;;;;;;;4.18;2.95;;;;;;;15.49;96.12;96421.47;5010753;28;24423;-73
2022/05/07 07:29:33;;;;;;;4.13;2.60;;;;;;;15.72;85.88;96421.59;5010451;28;24444;-73
2022/05/07 07:31:59;;;;;;;3.83;3.13;;;;;;;16.02;81.62;96425.50;5010415;28;24420;-72
2022/05/07 07:34:26;;;;;;;6.50;3.42;;;;;;;15.65;81.10;96423.84;5010933;28;24451;-73
2022/05/07 07:36:52;;;;;;;3.60;2.67;;;;;;;15.91;83.04;96414.09;5011217;28;24794;-73
2022/05/07 07:39:20;;;;;;;5.60;3.03;;;;;;;16.24;79.32;96416.91;5011098;28;24463;-73
2022/05/07 07:41:47;;;;;;;5.40;3.30;;;;;;;16.48;74.41;96419.47;5010402;28;24435;-73
2022/05/07 07:44:13;;;;;;;5.20;2.58;;;;;;;16.96;73.63;96411.44;5010082;28;24590;-73
2022/05/07 07:49:24;;;;;;;3.80;2.85;;;;;;;17.58;71.00;96416.94;5013967;28;25004;-73
2022/05/07 07:51:51;;;;;;;9.25;3.35;;;;;;;17.72;72.86;96415.78;5013811;28;24424;-73
2022/05/07 07:54:17;;;;;;;8.23;3.50;;;;;;;17.85;74.91;96413.06;5013809;28;24432;-73
2022/05/07 07:56:45;;;;;;;4.90;3.35;;;;;;;17.60;67.94;96424.66;5013680;28;24424;-73
2022/05/07 07:59:12;;;;;;;6.88;4.10;;;;;;;17.69;69.47;96416.06;5013519;28;24847;-73
2022/05/07 08:01:38;;;;;;;5.78;3.70;;;;;;;17.71;72.85;96419.38;5013837;28;24435;-73
2022/05/07 08:04:05;;;;;;;3.75;3.30;;;;;;;17.70;70.47;96414.28;5013508;28;24428;-73
2022/05/07 08:06:31;;;;;;;6.90;3.90;;;;;;;17.77;69.99;96413.69;5013600;28;25039;-73
2022/05/07 08:11:46;;;;;;;5.45;3.30;;;;;;;17.77;67.64;96418.91;5013825;28;24502;-72
2022/05/07 08:14:14;;;;;;;9.23;3.30;;;;;;;17.71;65.06;96422.00;5013691;28;24482;-73
2022/05/07 08:16:42;;;;;;;7.68;3.70;;;;;;;17.55;62.10;96424.19;5013867;28;24428;-74
2022/05/07 08:19:09;;;;;;;5.57;3.00;;;;;;;17.42;67.43;96419.91;5013964;28;24475;-73
2022/05/07 08:21:35;;;;;;;5.95;3.20;;;;;;;17.67;62.34;96431.06;5013859;28;24522;-73
2022/05/07 08:24:02;;;;;;;5.20;3.00;;;;;;;17.63;61.96;96417.38;5013799;28;25060;-73
2022/05/07 08:26:29;;;;;;;4.07;2.70;;;;;;;17.71;66.01;96426.41;5013950;28;24431;-73
2022/05/07 08:28:55;;;;;;;8.23;3.15;;;;;;;17.66;65.58;96434.66;5013699;28;24977;-73
2022/05/07 08:31:23;;;;;;;5.90;2.92;;;;;;;17.60;62.25;96429.88;5013549;28;24428;-74
2022/05/07 08:33:51;;;;;;;6.40;3.35;;;;;;;17.80;62.36;96430.94;5013505;28;24416;-73
2022/05/07 08:36:17;;;;;;;5.75;2.97;;;;;;;17.78;72.06;96423.19;5013079;28;24526;-74
2022/05/07 08:38:44;;;;;;;4.50;2.87;;;;;;;18.10;72.87;96425.81;5013057;28;24422;-74
2022/05/07 08:41:11;;;;;;;4.60;3.17;;;;;;;18.34;68.41;96422.09;5013286;28;24432;-73
2022/05/07 08:43:40;;;;;;;5.22;3.58;;;;;;;18.41;66.13;96417.19;5013132;28;24434;-74
2022/05/07 08:46:12;;;;;;;5.82;3.50;;;;;;;18.09;61.87;96418.88;5013017;28;24504;-74
2022/05/07 08:48:42;;;;;;;7.20;3.67;;;;;;;18.33;65.54;96415.19;5013130;28;25016;-74
2022/05/07 08:51:09;;;;;;;7.85;3.78;;;;;;;18.35;67.90;96422.00;5012771;28;24424;-73
2022/05/07 08:53:35;;;;;;;4.55;3.50;;;;;;;18.52;62.37;96425.81;5012724;28;24980;-74
2022/05/07 08:56:02;;;;;;;7.35;3.47;;;;;;;18.27;60.12;96423.56;5012188;28;24424;-73
2022/05/07 08:58:29;;;;;;;9.88;3.53;;;;;;;17.60;61.35;96420.25;5012426;28;25033;-74
2022/05/07 09:00:56;;;;;;;4.95;3.50;;;;;;;17.26;65.65;96421.28;5012644;28;24416;-73
2022/05/07 09:03:24;;;;;;;8.00;3.55;;;;;;;17.14;65.85;96421.28;5012574;28;24515;-74
2022/05/07 09:05:52;;;;;;;5.35;3.53;;;;;;;16.66;65.94;96421.50;5012996;28;24427;-74
2022/05/07 09:08:26;;;;;;;5.15;3.13;;;;;;;16.62;69.73;96425.31;5012806;28;24478;-73
2022/05/07 09:10:54;;;;;;;4.53;3.33;;;;;;;16.62;70.91;96424.47;5012691;28;24443;-73
2022/05/07 09:13:20;;;;;;;6.78;3.30;;;;;;;16.16;65.92;96427.94;5012774;28;24459;-73
2022/05/07 09:15:52;;;;;;;4.00;2.95;;;;;;;16.17;65.77;96421.78;5012772;28;24450;-73
2022/05/07 09:18:20;;;;;;;13.77;3.13;;;;;;;16.48;68.41;96429.94;5012643;28;24467;-74
2022/05/07 09:21:15;;;;;;;4.50;3.10;;;;;;;16.23;68.79;96423.91;5012672;28;24427;-73
2022/05/07 09:23:43;;;;;;;4.37;2.40;;;;;;;16.26;65.35;96418.47;5012343;28;24424;-74
2022/05/07 09:26:10;;;;;;;6.20;2.80;;;;;;;16.12;66.11;96424.72;5012026;28;24961;-74
2022/05/07 09:28:38;;;;;;;4.63;2.67;;;;;;;16.35;64.16;96424.78;5012541;28;24440;-74
2022/05/07 09:31:04;;;;;;;6.70;2.50;;;;;;;16.61;63.86;96422.78;5012604;28;24435;-74
2022/05/07 09:33:34;;;;;;;4.20;2.17;;;;;;;16.27;61.40;96409.66;5012774;28;24424;-73
2022/05/07 09:36:12;;;;;;;3.50;1.70;;;;;;;16.82;61.81;96418.56;5012269;28;24829;-74
2022/05/07 09:38:38;;;;;;;7.68;2.17;;;;;;;16.52;58.74;96418.28;5012383;28;24419;-73
2022/05/07 09:41:05;;;;;;;4.03;1.98;;;;;;;16.29;60.11;96407.78;5012744;28;24973;-74
2022/05/07 09:43:33;;;;;;;3.05;1.70;;;;;;;16.19;59.12;96406.81;5012573;28;24444;-74
2022/05/07 09:46:00;;;;;;;3.17;1.97;;;;;;;16.53;60.08;96410.31;5012245;28;24434;-74
2022/05/07 09:48:26;;;;;;;7.20;1.90;;;;;;;16.47;58.33;96415.19;5012438;28;24440;-74
2022/05/07 09:50:53;;;;;;;2.90;1.67;;;;;;;16.30;58.73;96419.06;5012420;28;24515;-73
2022/05/07 09:58:52;;;;;;;3.58;2.20;;;;;;;16.35;58.99;96419.53;5012717;28;24977;-74
2022/05/07 10:01:35;;;;;;;5.35;2.30;;;;;;;16.18;59.71;96418.22;5012437;28;24455;-74
2022/05/07 10:04:16;;;;;;;4.40;2.38;;;;;;;16.41;58.01;96419.91;5012038;28;24794;-74
2022/05/07 10:06:56;;;;;;;2.47;1.73;;;;;;;16.21;59.14;96418.81;5012563;28;24431;-75
2022/05/07 10:09:38;;;;;;;3.70;1.83;;;;;;;16.78;59.53;96418.94;5011830;28;25044;-74
2022/05/07 10:12:06;;;;;;;5.57;2.00;;;;;;;16.94;59.62;96408.94;5011857;28;24432;-73
2022/05/07 10:14:32;;;;;;;3.25;1.75;;;;;;;16.90;55.01;96412.75;5011388;28;24431;-73
2022/05/07 10:17:01;;;;;;;2.33;1.58;;;;;;;16.83;52.97;96401.91;5011587;28;24964;-74
2022/05/07 10:19:35;;;;;;;2.70;1.70;;;;;;;16.62;53.53;96416.63;5011611;28;24938;-74
2022/05/07 10:22:02;;;;;;;4.47;1.60;;;;;;;16.51;55.12;96409.59;5011399;28;24452;-73
2022/05/07 10:24:30;;;;;;;5.05;2.35;;;;;;;17.01;56.87;96404.88;5011877;28;24420;-73
2022/05/07 10:26:56;;;;;;;4.60;1.92;;;;;;;16.72;54.19;96399.25;5011980;28;24420;-73
2022/05/07 10:29:26;;;;;;;5.85;2.45;;;;;;;16.63;53.81;96407.84;5011178;28;24539;-73
2022/05/07 10:32:01;;;;;;;4.82;2.00;;;;;;;16.50;54.54;96407.09;5011166;28;24432;-73
2022/05/07 10:34:28;;;;;;;5.93;2.33;;;;;;;16.59;55.14;96403.78;5010739;28;24964;-73
2022/05/07 10:37:02;;;;;;;8.87;2.13;;;;;;;17.00;56.27;96400.59;5010972;28;24445;-73
2022/05/07 10:39:31;;;;;;;4.63;2.35;;;;;;;17.15;54.50;96399.41;5010655;28;24427;-73
2022/05/07 10:41:58;;;;;;;8.05;2.58;;;;;;;17.46;50.92;96399.56;5011190;28;24479;-73
2022/05/07 10:44:32;;;;;;;4.75;2.40;;;;;;;17.75;51.62;96392.00;5010882;28;24431;-72
2022/05/07 10:47:09;;;;;;;4.25;2.70;;;;;;;17.92;50.49;96393.25;5011312;28;24424;-73
2022/05/07 10:49:37;;;;;;;5.53;2.90;;;;;;;17.89;49.85;96390.88;5010872;28;24539;-72
2022/05/07 10:52:04;;;;;;;5.57;2.47;;;;;;;18.52;58.96;96386.47;5010966;28;24425;-73
2022/05/07 10:54:32;;;;;;;2.92;2.08;;;;;;;18.64;50.59;96387.19;5010572;28;24954;-73
2022/05/07 10:56:59;;;;;;;4.13;2.20;;;;;;;18.78;55.64;96381.63;5011284;28;24425;-74
2022/05/07 10:59:29;;;;;;;3.80;2.08;;;;;;;18.85;53.85;96379.31;5011404;28;24814;-74
2022/05/07 11:02:05;;;;;;;4.65;2.13;;;;;;;18.83;51.34;96376.81;5010919;28;24428;-74
2022/05/07 11:04:31;;;;;;;10.88;2.47;;;;;;;18.92;51.47;96383.09;5011048;28;24511;-73
2022/05/07 11:06:57;;;;;;;3.33;1.80;;;;;;;18.16;47.71;96373.81;5011482;28;24417;-73
2022/05/07 11:09:25;;;;;;;4.25;2.35;;;;;;;18.60;52.13;96375.31;5011196;28;24451;-74
2022/05/07 11:11:54;;;;;;;4.25;2.13;;;;;;;18.75;51.27;96374.03;5010940;28;24500;-73
2022/05/07 11:14:23;;;;;;;3.75;2.13;;;;;;;18.86;50.67;96376.56;5011465;28;24501;-73
2022/05/07 11:16:50;;;;;;;4.50;2.03;;;;;;;18.98;52.20;96384.31;5011186;28;24512;-73
2022/05/07 11:19:24;;;;;;;2.90;1.90;;;;;;;18.97;49.25;96380.06;5011248;28;24428;-74
2022/05/07 11:21:52;;;;;;;2.85;2.10;;;;;;;18.70;46.58;96380.63;5014882;28;24444;-73
2022/05/07 11:24:19;;;;;;;8.85;2.03;;;;;;;18.99;48.76;96370.25;5014393;28;24527;-73
2022/05/07 11:26:50;;;;;;;3.00;1.85;;;;;;;19.21;50.19;96370.03;5014761;28;24427;-73
2022/05/07 11:29:18;;;;;;;4.63;1.85;;;;;;;18.97;46.06;96367.75;5014635;28;24448;-73
2022/05/07 11:31:55;;;;;;;5.70;1.70;;;;;;;18.71;46.87;96375.25;5014648;28;24964;-74
2022/05/07 11:34:29;;;;;;;12.23;2.08;;;;;;;18.21;44.48;96366.41;5014357;28;24412;-74
2022/05/07 11:36:55;;;;;;;9.52;1.80;;;;;;;18.00;43.08;96362.00;5014638;28;24969;-74
2022/05/07 11:39:22;;;;;;;5.20;1.85;;;;;;;18.10;40.75;96365.53;5014384;28;24471;-73
2022/05/07 11:41:54;;;;;;;3.05;1.88;;;;;;;18.16;40.97;96368.56;5014351;28;24427;-74
2022/05/07 11:47:21;;;;;;;2.45;1.80;;;;;;;18.01;41.32;96362.81;5014656;28;24952;-74
2022/05/07 11:49:58;;;;;;;3.35;1.98;;;;;;;18.26;48.00;96351.13;5014343;28;24447;-74
2022/05/07 11:52:28;;;;;;;5.30;2.33;;;;;;;18.76;43.71;96348.59;5013724;28;24974;-74
2022/05/07 11:54:54;;;;;;;4.43;2.30;;;;;;;18.95;46.88;96348.69;5014267;28;24455;-73
2022/05/07 11:57:28;;;;;;;2.20;1.67;;;;;;;18.85;47.03;96340.78;5014008;28;24969;-74
2022/05/07 11:59:56;;;;;;;4.05;2.05;;;;;;;18.58;42.78;96341.34;5014047;28;24420;-74
2022/05/07 12:02:23;;;;;;;3.97;2.00;;;;;;;18.52;44.79;96341.03;5013666;28;24511;-74
2022/05/07 12:04:57;;;;;;;4.65;2.08;;;;;;;19.03;53.61;96337.53;5013776;28;24439;-74
2022/05/07 12:07:24;;;;;;;2.90;2.30;;;;;;;19.14;48.38;96333.97;5014182;28;24432;-74